Current Weather

Bob Hope

Burbank, California (KBUR)

Report from: Tuesday, June 18, 2024 3:53 AM PDT
Current time: Tuesday, June 18, 2024 4:26 AM PDT

Nearby weather – Weather history – Daily summaries
Weather forecast

Temperature16.7°C (62.1°F)
Dew point13.9°C (57.0°F)
Winds 4 kts (2.1 m/s, 4.6 mph) South (170°)
Visibility10 mi. (16.1 km)
Clouds Ceiling: Overcast 1,200 ft. (366 m)
Altimeter29.72 in.Hg (1006 mB)
Relative humidity84 %
Density altitude690 ft. (210 m)
Sea-level pressure100.5 kPa (1005 mB, 29.69 in.Hg)
Remarks Automated weather observing station with precipitation discriminator
Flight conditions Marginal Visual Meteorological Conditions
Raw dataKBUR 181053Z 17004KT 10SM OVC012 17/14 A2972 RMK AO2 SLP053 T01670139
An error has occurred. This application may no longer respond until reloaded. Reload 🗙